sensor_id;sensor_type;location;lat;lon;timestamp;P1;durP1;ratioP1;P2;durP2;ratioP2
45676;SDS011;31390;51.186;6.830;2023-03-20T00:02:09;17.50;;;14.45;;
45676;SDS011;31390;51.186;6.830;2023-03-20T00:04:37;16.35;;;13.40;;
45676;SDS011;31390;51.186;6.830;2023-03-20T00:07:03;13.70;;;12.20;;
45676;SDS011;31390;51.186;6.830;2023-03-20T00:09:30;21.55;;;15.32;;
45676;SDS011;31390;51.186;6.830;2023-03-20T00:11:56;17.98;;;14.38;;
45676;SDS011;31390;51.186;6.830;2023-03-20T00:14:23;14.30;;;12.77;;
45676;SDS011;31390;51.186;6.830;2023-03-20T00:16:50;17.08;;;12.70;;
45676;SDS011;31390;51.186;6.830;2023-03-20T00:21:44;15.35;;;12.63;;
45676;SDS011;31390;51.186;6.830;2023-03-20T00:24:12;17.27;;;13.25;;
45676;SDS011;31390;51.186;6.830;2023-03-20T00:26:38;13.52;;;11.82;;
45676;SDS011;31390;51.186;6.830;2023-03-20T00:29:06;17.25;;;14.07;;
45676;SDS011;31390;51.186;6.830;2023-03-20T00:31:37;13.38;;;11.98;;
45676;SDS011;31390;51.186;6.830;2023-03-20T00:34:05;14.23;;;11.40;;
45676;SDS011;31390;51.186;6.830;2023-03-20T00:36:35;12.55;;;11.30;;
45676;SDS011;31390;51.186;6.830;2023-03-20T00:39:01;14.55;;;12.23;;
45676;SDS011;31390;51.186;6.830;2023-03-20T00:41:30;12.20;;;10.77;;
45676;SDS011;31390;51.186;6.830;2023-03-20T00:44:01;14.07;;;11.68;;
45676;SDS011;31390;51.186;6.830;2023-03-20T00:46:30;15.43;;;11.38;;
45676;SDS011;31390;51.186;6.830;2023-03-20T00:48:59;14.55;;;11.93;;
45676;SDS011;31390;51.186;6.830;2023-03-20T00:51:27;13.05;;;11.65;;
45676;SDS011;31390;51.186;6.830;2023-03-20T00:53:53;12.93;;;11.02;;
45676;SDS011;31390;51.186;6.830;2023-03-20T00:56:34;11.95;;;10.63;;
45676;SDS011;31390;51.186;6.830;2023-03-20T00:59:01;13.32;;;11.30;;
45676;SDS011;31390;51.186;6.830;2023-03-20T01:01:29;11.70;;;10.50;;
45676;SDS011;31390;51.186;6.830;2023-03-20T01:03:57;14.00;;;11.25;;
45676;SDS011;31390;51.186;6.830;2023-03-20T01:06:23;15.45;;;13.00;;
45676;SDS011;31390;51.186;6.830;2023-03-20T01:08:50;15.00;;;12.43;;
45676;SDS011;31390;51.186;6.830;2023-03-20T01:11:18;16.10;;;13.23;;
45676;SDS011;31390;51.186;6.830;2023-03-20T01:13:47;16.67;;;14.05;;
45676;SDS011;31390;51.186;6.830;2023-03-20T01:16:18;14.93;;;12.75;;
45676;SDS011;31390;51.186;6.830;2023-03-20T01:18:46;17.70;;;13.90;;
45676;SDS011;31390;51.186;6.830;2023-03-20T01:21:13;19.75;;;14.27;;
45676;SDS011;31390;51.186;6.830;2023-03-20T01:23:40;17.50;;;14.13;;
45676;SDS011;31390;51.186;6.830;2023-03-20T01:26:27;15.20;;;13.30;;
45676;SDS011;31390;51.186;6.830;2023-03-20T01:28:55;16.60;;;13.32;;
45676;SDS011;31390;51.186;6.830;2023-03-20T01:31:22;22.13;;;16.20;;
45676;SDS011;31390;51.186;6.830;2023-03-20T01:33:49;22.40;;;16.42;;
45676;SDS011;31390;51.186;6.830;2023-03-20T01:36:17;18.35;;;14.52;;
45676;SDS011;31390;51.186;6.830;2023-03-20T01:38:45;18.20;;;14.05;;
45676;SDS011;31390;51.186;6.830;2023-03-20T01:41:15;23.83;;;16.92;;
45676;SDS011;31390;51.186;6.830;2023-03-20T01:43:43;18.00;;;14.80;;
45676;SDS011;31390;51.186;6.830;2023-03-20T01:51:25;17.77;;;14.43;;
45676;SDS011;31390;51.186;6.830;2023-03-20T01:53:57;21.25;;;16.10;;
45676;SDS011;31390;51.186;6.830;2023-03-20T01:56:24;21.88;;;16.50;;
45676;SDS011;31390;51.186;6.830;2023-03-20T01:59:38;22.70;;;16.40;;
45676;SDS011;31390;51.186;6.830;2023-03-20T02:01:37;24.75;;;16.88;;
45676;SDS011;31390;51.186;6.830;2023-03-20T02:04:04;24.95;;;17.15;;
45676;SDS011;31390;51.186;6.830;2023-03-20T02:06:44;24.48;;;17.75;;
45676;SDS011;31390;51.186;6.830;2023-03-20T02:09:14;27.42;;;18.83;;
45676;SDS011;31390;51.186;6.830;2023-03-20T02:11:43;26.55;;;17.60;;
45676;SDS011;31390;51.186;6.830;2023-03-20T02:14:10;26.80;;;17.85;;
45676;SDS011;31390;51.186;6.830;2023-03-20T02:16:49;23.90;;;17.42;;
45676;SDS011;31390;51.186;6.830;2023-03-20T02:24:47;25.80;;;16.92;;
45676;SDS011;31390;51.186;6.830;2023-03-20T02:27:29;24.50;;;17.85;;
45676;SDS011;31390;51.186;6.830;2023-03-20T02:30:02;30.75;;;19.95;;
45676;SDS011;31390;51.186;6.830;2023-03-20T02:43:10;26.92;;;18.95;;
45676;SDS011;31390;51.186;6.830;2023-03-20T02:45:47;32.50;;;21.15;;
45676;SDS011;31390;51.186;6.830;2023-03-20T02:48:29;24.33;;;17.80;;
45676;SDS011;31390;51.186;6.830;2023-03-20T02:51:03;41.75;;;23.20;;
45676;SDS011;31390;51.186;6.830;2023-03-20T02:53:41;33.88;;;21.05;;
45676;SDS011;31390;51.186;6.830;2023-03-20T02:56:16;33.88;;;20.85;;
45676;SDS011;31390;51.186;6.830;2023-03-20T03:01:19;40.80;;;23.63;;
45676;SDS011;31390;51.186;6.830;2023-03-20T03:03:48;35.92;;;21.95;;
45676;SDS011;31390;51.186;6.830;2023-03-20T03:08:48;40.83;;;23.30;;
45676;SDS011;31390;51.186;6.830;2023-03-20T03:11:15;32.63;;;20.02;;
45676;SDS011;31390;51.186;6.830;2023-03-20T03:13:47;32.70;;;20.10;;
45676;SDS011;31390;51.186;6.830;2023-03-20T03:16:15;48.92;;;25.90;;
45676;SDS011;31390;51.186;6.830;2023-03-20T03:18:43;35.67;;;22.13;;
45676;SDS011;31390;51.186;6.830;2023-03-20T03:21:12;43.58;;;25.25;;
45676;SDS011;31390;51.186;6.830;2023-03-20T03:23:45;39.25;;;23.25;;
45676;SDS011;31390;51.186;6.830;2023-03-20T03:26:20;45.50;;;24.23;;
45676;SDS011;31390;51.186;6.830;2023-03-20T03:28:59;45.75;;;24.60;;
45676;SDS011;31390;51.186;6.830;2023-03-20T03:31:27;39.08;;;23.48;;
45676;SDS011;31390;51.186;6.830;2023-03-20T03:33:56;37.10;;;23.10;;
45676;SDS011;31390;51.186;6.830;2023-03-20T03:39:00;38.85;;;23.27;;
45676;SDS011;31390;51.186;6.830;2023-03-20T03:42:04;37.78;;;22.40;;
45676;SDS011;31390;51.186;6.830;2023-03-20T03:44:27;41.97;;;23.47;;
45676;SDS011;31390;51.186;6.830;2023-03-20T03:47:01;46.73;;;26.10;;
45676;SDS011;31390;51.186;6.830;2023-03-20T03:49:31;40.42;;;24.20;;
45676;SDS011;31390;51.186;6.830;2023-03-20T03:52:00;47.10;;;26.13;;
45676;SDS011;31390;51.186;6.830;2023-03-20T03:54:33;69.60;;;32.67;;
45676;SDS011;31390;51.186;6.830;2023-03-20T03:57:21;54.90;;;28.48;;
45676;SDS011;31390;51.186;6.830;2023-03-20T03:59:49;59.00;;;30.52;;
45676;SDS011;31390;51.186;6.830;2023-03-20T04:02:17;54.08;;;29.60;;
45676;SDS011;31390;51.186;6.830;2023-03-20T04:04:47;36.22;;;25.10;;
45676;SDS011;31390;51.186;6.830;2023-03-20T04:07:14;48.75;;;28.70;;
45676;SDS011;31390;51.186;6.830;2023-03-20T04:09:41;41.27;;;26.27;;
45676;SDS011;31390;51.186;6.830;2023-03-20T04:12:20;48.40;;;27.88;;
45676;SDS011;31390;51.186;6.830;2023-03-20T04:14:54;43.53;;;27.80;;
45676;SDS011;31390;51.186;6.830;2023-03-20T04:17:22;46.60;;;27.30;;
45676;SDS011;31390;51.186;6.830;2023-03-20T04:19:49;44.88;;;26.20;;
45676;SDS011;31390;51.186;6.830;2023-03-20T04:22:17;38.95;;;25.42;;
45676;SDS011;31390;51.186;6.830;2023-03-20T04:24:43;34.97;;;24.55;;
45676;SDS011;31390;51.186;6.830;2023-03-20T04:27:10;43.30;;;25.00;;
45676;SDS011;31390;51.186;6.830;2023-03-20T04:29:38;40.42;;;25.63;;
45676;SDS011;31390;51.186;6.830;2023-03-20T04:32:24;42.72;;;26.30;;
45676;SDS011;31390;51.186;6.830;2023-03-20T04:35:09;46.25;;;27.35;;
45676;SDS011;31390;51.186;6.830;2023-03-20T04:37:46;52.40;;;29.40;;
45676;SDS011;31390;51.186;6.830;2023-03-20T04:40:14;44.78;;;27.52;;
45676;SDS011;31390;51.186;6.830;2023-03-20T04:42:42;39.63;;;26.70;;
45676;SDS011;31390;51.186;6.830;2023-03-20T04:45:09;36.08;;;23.20;;
45676;SDS011;31390;51.186;6.830;2023-03-20T04:47:37;37.92;;;24.48;;
45676;SDS011;31390;51.186;6.830;2023-03-20T04:50:05;40.20;;;25.30;;
45676;SDS011;31390;51.186;6.830;2023-03-20T04:52:32;39.70;;;25.38;;
45676;SDS011;31390;51.186;6.830;2023-03-20T04:55:00;45.17;;;26.88;;
45676;SDS011;31390;51.186;6.830;2023-03-20T04:57:27;40.35;;;25.77;;
45676;SDS011;31390;51.186;6.830;2023-03-20T04:59:53;33.15;;;22.85;;
45676;SDS011;31390;51.186;6.830;2023-03-20T05:02:20;36.95;;;24.08;;
45676;SDS011;31390;51.186;6.830;2023-03-20T05:04:47;34.67;;;22.58;;
45676;SDS011;31390;51.186;6.830;2023-03-20T05:07:13;26.15;;;19.25;;
45676;SDS011;31390;51.186;6.830;2023-03-20T05:09:58;31.92;;;21.63;;
45676;SDS011;31390;51.186;6.830;2023-03-20T05:12:25;34.88;;;22.30;;
45676;SDS011;31390;51.186;6.830;2023-03-20T05:15:11;39.45;;;22.52;;
45676;SDS011;31390;51.186;6.830;2023-03-20T05:17:49;34.13;;;22.73;;
45676;SDS011;31390;51.186;6.830;2023-03-20T05:20:38;33.83;;;20.85;;
45676;SDS011;31390;51.186;6.830;2023-03-20T05:23:17;40.90;;;24.35;;
45676;SDS011;31390;51.186;6.830;2023-03-20T05:25:51;33.70;;;21.83;;
45676;SDS011;31390;51.186;6.830;2023-03-20T05:28:32;34.17;;;23.30;;
45676;SDS011;31390;51.186;6.830;2023-03-20T05:31:10;39.93;;;23.70;;
45676;SDS011;31390;51.186;6.830;2023-03-20T05:33:53;38.87;;;24.63;;
45676;SDS011;31390;51.186;6.830;2023-03-20T05:36:42;36.17;;;23.27;;
45676;SDS011;31390;51.186;6.830;2023-03-20T05:39:34;41.83;;;25.20;;
45676;SDS011;31390;51.186;6.830;2023-03-20T05:42:19;54.63;;;30.00;;
45676;SDS011;31390;51.186;6.830;2023-03-20T05:45:04;39.83;;;25.08;;
45676;SDS011;31390;51.186;6.830;2023-03-20T05:47:49;42.03;;;25.97;;
45676;SDS011;31390;51.186;6.830;2023-03-20T05:50:31;42.50;;;26.38;;
45676;SDS011;31390;51.186;6.830;2023-03-20T05:53:11;47.60;;;27.27;;
45676;SDS011;31390;51.186;6.830;2023-03-20T05:56:08;38.92;;;25.30;;
45676;SDS011;31390;51.186;6.830;2023-03-20T05:58:38;40.78;;;26.30;;
45676;SDS011;31390;51.186;6.830;2023-03-20T06:01:13;46.03;;;26.92;;
45676;SDS011;31390;51.186;6.830;2023-03-20T06:04:04;39.75;;;24.75;;
45676;SDS011;31390;51.186;6.830;2023-03-20T06:06:49;33.92;;;22.17;;
45676;SDS011;31390;51.186;6.830;2023-03-20T06:09:17;34.60;;;22.48;;
45676;SDS011;31390;51.186;6.830;2023-03-20T06:11:43;40.10;;;24.42;;
45676;SDS011;31390;51.186;6.830;2023-03-20T06:14:14;39.85;;;24.17;;
45676;SDS011;31390;51.186;6.830;2023-03-20T06:16:48;42.60;;;23.30;;
45676;SDS011;31390;51.186;6.830;2023-03-20T06:19:15;41.35;;;24.65;;
45676;SDS011;31390;51.186;6.830;2023-03-20T06:21:41;35.97;;;23.40;;
45676;SDS011;31390;51.186;6.830;2023-03-20T06:24:12;40.67;;;23.13;;
45676;SDS011;31390;51.186;6.830;2023-03-20T06:26:38;40.25;;;24.55;;
45676;SDS011;31390;51.186;6.830;2023-03-20T06:29:09;38.50;;;24.63;;
45676;SDS011;31390;51.186;6.830;2023-03-20T06:31:35;37.70;;;22.90;;
45676;SDS011;31390;51.186;6.830;2023-03-20T06:34:04;35.97;;;21.60;;
45676;SDS011;31390;51.186;6.830;2023-03-20T06:36:36;39.10;;;22.90;;
45676;SDS011;31390;51.186;6.830;2023-03-20T06:39:08;30.63;;;19.77;;
45676;SDS011;31390;51.186;6.830;2023-03-20T06:41:35;29.17;;;19.35;;
45676;SDS011;31390;51.186;6.830;2023-03-20T06:44:06;29.67;;;18.65;;
45676;SDS011;31390;51.186;6.830;2023-03-20T06:46:52;25.83;;;15.90;;
45676;SDS011;31390;51.186;6.830;2023-03-20T06:49:19;26.73;;;17.88;;
45676;SDS011;31390;51.186;6.830;2023-03-20T06:51:46;22.73;;;16.50;;
45676;SDS011;31390;51.186;6.830;2023-03-20T06:54:20;33.47;;;20.30;;
45676;SDS011;31390;51.186;6.830;2023-03-20T06:56:47;30.98;;;20.58;;
45676;SDS011;31390;51.186;6.830;2023-03-20T06:59:14;27.05;;;19.65;;
45676;SDS011;31390;51.186;6.830;2023-03-20T07:01:41;29.13;;;19.25;;
45676;SDS011;31390;51.186;6.830;2023-03-20T07:04:07;32.05;;;21.23;;
45676;SDS011;31390;51.186;6.830;2023-03-20T07:06:40;31.63;;;20.83;;
45676;SDS011;31390;51.186;6.830;2023-03-20T07:09:07;30.67;;;20.63;;
45676;SDS011;31390;51.186;6.830;2023-03-20T07:11:34;33.75;;;21.23;;
45676;SDS011;31390;51.186;6.830;2023-03-20T07:14:01;30.80;;;21.13;;
45676;SDS011;31390;51.186;6.830;2023-03-20T07:16:41;28.63;;;19.90;;
45676;SDS011;31390;51.186;6.830;2023-03-20T07:19:07;26.23;;;19.35;;
45676;SDS011;31390;51.186;6.830;2023-03-20T07:21:37;28.05;;;18.20;;
45676;SDS011;31390;51.186;6.830;2023-03-20T07:24:04;26.10;;;17.58;;
45676;SDS011;31390;51.186;6.830;2023-03-20T07:26:32;28.00;;;19.38;;
45676;SDS011;31390;51.186;6.830;2023-03-20T07:28:59;26.05;;;18.48;;
45676;SDS011;31390;51.186;6.830;2023-03-20T07:31:26;28.23;;;17.20;;
45676;SDS011;31390;51.186;6.830;2023-03-20T07:34:06;21.60;;;15.25;;
45676;SDS011;31390;51.186;6.830;2023-03-20T07:36:33;24.80;;;17.13;;
45676;SDS011;31390;51.186;6.830;2023-03-20T07:39:00;22.75;;;15.90;;
45676;SDS011;31390;51.186;6.830;2023-03-20T07:41:28;16.75;;;12.27;;
45676;SDS011;31390;51.186;6.830;2023-03-20T07:44:00;17.17;;;12.48;;
45676;SDS011;31390;51.186;6.830;2023-03-20T07:46:30;16.70;;;11.82;;
45676;SDS011;31390;51.186;6.830;2023-03-20T07:48:58;13.95;;;10.63;;
45676;SDS011;31390;51.186;6.830;2023-03-20T07:51:25;15.23;;;11.18;;
45676;SDS011;31390;51.186;6.830;2023-03-20T07:53:51;14.85;;;11.43;;
45676;SDS011;31390;51.186;6.830;2023-03-20T07:56:18;14.13;;;11.35;;
45676;SDS011;31390;51.186;6.830;2023-03-20T07:58:46;18.25;;;10.52;;
45676;SDS011;31390;51.186;6.830;2023-03-20T08:01:13;11.15;;;9.15;;
45676;SDS011;31390;51.186;6.830;2023-03-20T08:03:40;14.00;;;10.07;;
45676;SDS011;31390;51.186;6.830;2023-03-20T08:06:07;13.65;;;8.52;;
45676;SDS011;31390;51.186;6.830;2023-03-20T08:08:35;12.82;;;9.35;;
45676;SDS011;31390;51.186;6.830;2023-03-20T08:11:01;11.63;;;9.00;;
45676;SDS011;31390;51.186;6.830;2023-03-20T08:13:30;10.75;;;8.80;;
45676;SDS011;31390;51.186;6.830;2023-03-20T08:15:57;14.00;;;9.60;;
45676;SDS011;31390;51.186;6.830;2023-03-20T08:18:23;15.90;;;9.32;;
45676;SDS011;31390;51.186;6.830;2023-03-20T08:20:52;10.85;;;8.13;;
45676;SDS011;31390;51.186;6.830;2023-03-20T08:23:18;12.32;;;9.43;;
45676;SDS011;31390;51.186;6.830;2023-03-20T08:25:49;11.38;;;8.50;;
45676;SDS011;31390;51.186;6.830;2023-03-20T08:28:16;11.95;;;9.43;;
45676;SDS011;31390;51.186;6.830;2023-03-20T08:30:43;12.05;;;9.13;;
45676;SDS011;31390;51.186;6.830;2023-03-20T08:33:09;10.57;;;8.88;;
45676;SDS011;31390;51.186;6.830;2023-03-20T08:35:36;13.38;;;8.93;;
45676;SDS011;31390;51.186;6.830;2023-03-20T08:38:03;11.05;;;8.98;;
45676;SDS011;31390;51.186;6.830;2023-03-20T08:40:30;11.07;;;8.40;;
45676;SDS011;31390;51.186;6.830;2023-03-20T08:42:56;12.70;;;8.93;;
45676;SDS011;31390;51.186;6.830;2023-03-20T08:45:23;10.35;;;8.57;;
45676;SDS011;31390;51.186;6.830;2023-03-20T08:47:51;12.40;;;8.90;;
45676;SDS011;31390;51.186;6.830;2023-03-20T08:50:19;11.43;;;8.32;;
45676;SDS011;31390;51.186;6.830;2023-03-20T08:52:45;10.60;;;7.93;;
45676;SDS011;31390;51.186;6.830;2023-03-20T08:55:14;9.55;;;8.07;;
45676;SDS011;31390;51.186;6.830;2023-03-20T08:57:41;9.15;;;7.47;;
45676;SDS011;31390;51.186;6.830;2023-03-20T09:00:10;9.23;;;7.40;;
45676;SDS011;31390;51.186;6.830;2023-03-20T09:02:38;9.45;;;7.32;;
45676;SDS011;31390;51.186;6.830;2023-03-20T09:05:04;9.48;;;7.10;;
45676;SDS011;31390;51.186;6.830;2023-03-20T09:07:31;11.02;;;7.88;;
45676;SDS011;31390;51.186;6.830;2023-03-20T09:09:58;8.80;;;6.75;;
45676;SDS011;31390;51.186;6.830;2023-03-20T09:12:24;10.55;;;7.20;;
45676;SDS011;31390;51.186;6.830;2023-03-20T09:14:51;10.85;;;6.88;;
45676;SDS011;31390;51.186;6.830;2023-03-20T09:17:18;9.02;;;7.05;;
45676;SDS011;31390;51.186;6.830;2023-03-20T09:19:44;9.10;;;6.60;;
45676;SDS011;31390;51.186;6.830;2023-03-20T09:22:14;9.30;;;7.10;;
45676;SDS011;31390;51.186;6.830;2023-03-20T09:24:44;9.20;;;6.65;;
45676;SDS011;31390;51.186;6.830;2023-03-20T09:27:11;9.90;;;6.85;;
45676;SDS011;31390;51.186;6.830;2023-03-20T09:29:42;11.15;;;7.22;;
45676;SDS011;31390;51.186;6.830;2023-03-20T09:32:13;9.32;;;6.18;;
45676;SDS011;31390;51.186;6.830;2023-03-20T09:34:39;10.93;;;6.55;;
45676;SDS011;31390;51.186;6.830;2023-03-20T09:37:06;10.40;;;6.63;;
45676;SDS011;31390;51.186;6.830;2023-03-20T09:39:33;11.88;;;5.60;;
45676;SDS011;31390;51.186;6.830;2023-03-20T09:44:56;9.70;;;5.68;;
45676;SDS011;31390;51.186;6.830;2023-03-20T09:47:28;7.53;;;4.75;;
45676;SDS011;31390;51.186;6.830;2023-03-20T09:50:06;9.45;;;5.50;;
45676;SDS011;31390;51.186;6.830;2023-03-20T09:52:39;7.03;;;4.63;;
45676;SDS011;31390;51.186;6.830;2023-03-20T09:55:12;5.97;;;3.75;;
45676;SDS011;31390;51.186;6.830;2023-03-20T09:57:45;6.88;;;3.63;;
45676;SDS011;31390;51.186;6.830;2023-03-20T10:00:14;6.65;;;3.25;;
45676;SDS011;31390;51.186;6.830;2023-03-20T10:02:50;11.77;;;3.60;;
45676;SDS011;31390;51.186;6.830;2023-03-20T10:05:18;5.15;;;3.70;;
45676;SDS011;31390;51.186;6.830;2023-03-20T10:07:46;6.10;;;4.13;;
45676;SDS011;31390;51.186;6.830;2023-03-20T10:10:14;5.85;;;3.95;;
45676;SDS011;31390;51.186;6.830;2023-03-20T10:13:00;8.02;;;3.45;;
45676;SDS011;31390;51.186;6.830;2023-03-20T10:15:52;6.07;;;3.40;;
45676;SDS011;31390;51.186;6.830;2023-03-20T10:18:23;5.20;;;3.28;;
45676;SDS011;31390;51.186;6.830;2023-03-20T10:20:54;5.20;;;3.08;;
45676;SDS011;31390;51.186;6.830;2023-03-20T10:23:42;4.55;;;3.22;;
45676;SDS011;31390;51.186;6.830;2023-03-20T10:26:13;6.50;;;3.75;;
45676;SDS011;31390;51.186;6.830;2023-03-20T10:28:52;6.80;;;3.28;;
45676;SDS011;31390;51.186;6.830;2023-03-20T10:39:17;5.53;;;2.83;;
45676;SDS011;31390;51.186;6.830;2023-03-20T10:41:51;6.32;;;3.22;;
45676;SDS011;31390;51.186;6.830;2023-03-20T10:44:22;7.25;;;3.00;;
45676;SDS011;31390;51.186;6.830;2023-03-20T10:46:51;6.82;;;2.95;;
45676;SDS011;31390;51.186;6.830;2023-03-20T10:49:21;9.02;;;3.85;;
45676;SDS011;31390;51.186;6.830;2023-03-20T10:51:53;6.32;;;3.35;;
45676;SDS011;31390;51.186;6.830;2023-03-20T10:54:22;8.00;;;4.00;;
45676;SDS011;31390;51.186;6.830;2023-03-20T10:56:49;5.47;;;3.70;;
45676;SDS011;31390;51.186;6.830;2023-03-20T10:59:22;7.20;;;3.92;;
45676;SDS011;31390;51.186;6.830;2023-03-20T11:01:49;7.70;;;4.55;;
45676;SDS011;31390;51.186;6.830;2023-03-20T11:04:16;8.25;;;4.75;;
45676;SDS011;31390;51.186;6.830;2023-03-20T11:09:28;6.28;;;4.45;;
45676;SDS011;31390;51.186;6.830;2023-03-20T11:11:56;11.07;;;4.30;;
45676;SDS011;31390;51.186;6.830;2023-03-20T11:14:25;8.40;;;4.00;;
45676;SDS011;31390;51.186;6.830;2023-03-20T11:16:53;6.47;;;4.40;;
45676;SDS011;31390;51.186;6.830;2023-03-20T11:19:21;7.72;;;4.53;;
45676;SDS011;31390;51.186;6.830;2023-03-20T11:21:52;6.90;;;4.28;;
45676;SDS011;31390;51.186;6.830;2023-03-20T11:24:42;9.40;;;4.85;;
45676;SDS011;31390;51.186;6.830;2023-03-20T11:27:06;8.20;;;4.60;;
45676;SDS011;31390;51.186;6.830;2023-03-20T11:29:33;9.20;;;4.18;;
45676;SDS011;31390;51.186;6.830;2023-03-20T11:32:15;6.32;;;4.43;;
45676;SDS011;31390;51.186;6.830;2023-03-20T11:34:43;7.68;;;4.13;;
45676;SDS011;31390;51.186;6.830;2023-03-20T11:37:26;10.00;;;4.60;;
45676;SDS011;31390;51.186;6.830;2023-03-20T11:40:15;12.68;;;4.35;;
45676;SDS011;31390;51.186;6.830;2023-03-20T11:45:42;7.40;;;3.60;;
45676;SDS011;31390;51.186;6.830;2023-03-20T11:50:44;7.93;;;4.32;;
45676;SDS011;31390;51.186;6.830;2023-03-20T11:56:01;3.97;;;2.60;;
45676;SDS011;31390;51.186;6.830;2023-03-20T11:58:28;4.53;;;2.90;;
45676;SDS011;31390;51.186;6.830;2023-03-20T12:00:55;6.10;;;2.88;;
45676;SDS011;31390;51.186;6.830;2023-03-20T12:03:33;6.88;;;3.13;;
45676;SDS011;31390;51.186;6.830;2023-03-20T12:06:04;9.82;;;4.03;;
45676;SDS011;31390;51.186;6.830;2023-03-20T12:08:31;5.95;;;3.28;;
45676;SDS011;31390;51.186;6.830;2023-03-20T12:11:07;6.60;;;3.30;;
45676;SDS011;31390;51.186;6.830;2023-03-20T12:13:42;13.25;;;4.20;;
45676;SDS011;31390;51.186;6.830;2023-03-20T12:16:10;7.82;;;4.10;;
45676;SDS011;31390;51.186;6.830;2023-03-20T12:18:42;4.88;;;3.35;;
45676;SDS011;31390;51.186;6.830;2023-03-20T12:21:18;6.22;;;3.58;;
45676;SDS011;31390;51.186;6.830;2023-03-20T12:23:59;5.28;;;3.35;;
45676;SDS011;31390;51.186;6.830;2023-03-20T12:26:31;8.60;;;3.78;;
45676;SDS011;31390;51.186;6.830;2023-03-20T12:29:18;6.53;;;2.83;;
45676;SDS011;31390;51.186;6.830;2023-03-20T12:31:57;6.55;;;3.15;;
45676;SDS011;31390;51.186;6.830;2023-03-20T12:34:30;5.57;;;2.63;;
45676;SDS011;31390;51.186;6.830;2023-03-20T12:36:58;7.53;;;2.80;;
45676;SDS011;31390;51.186;6.830;2023-03-20T12:39:32;6.38;;;2.60;;
45676;SDS011;31390;51.186;6.830;2023-03-20T12:42:44;5.03;;;2.10;;
45676;SDS011;31390;51.186;6.830;2023-03-20T12:44:50;5.45;;;2.75;;
45676;SDS011;31390;51.186;6.830;2023-03-20T12:52:51;6.70;;;3.05;;
45676;SDS011;31390;51.186;6.830;2023-03-20T12:58:13;4.43;;;2.90;;
45676;SDS011;31390;51.186;6.830;2023-03-20T13:00:59;8.85;;;3.42;;
45676;SDS011;31390;51.186;6.830;2023-03-20T13:03:34;5.82;;;2.97;;
45676;SDS011;31390;51.186;6.830;2023-03-20T13:13:54;5.15;;;3.08;;
45676;SDS011;31390;51.186;6.830;2023-03-20T13:16:28;8.75;;;3.90;;
45676;SDS011;31390;51.186;6.830;2023-03-20T13:21:39;7.53;;;3.72;;
45676;SDS011;31390;51.186;6.830;2023-03-20T13:29:29;5.55;;;3.47;;
45676;SDS011;31390;51.186;6.830;2023-03-20T13:32:02;4.95;;;2.90;;
45676;SDS011;31390;51.186;6.830;2023-03-20T13:37:25;5.00;;;3.25;;
45676;SDS011;31390;51.186;6.830;2023-03-20T13:45:38;5.72;;;3.20;;
45676;SDS011;31390;51.186;6.830;2023-03-20T13:50:48;7.28;;;3.75;;
45676;SDS011;31390;51.186;6.830;2023-03-20T13:53:23;6.00;;;3.30;;
45676;SDS011;31390;51.186;6.830;2023-03-20T13:58:43;5.25;;;3.28;;
45676;SDS011;31390;51.186;6.830;2023-03-20T14:03:57;7.05;;;3.47;;
45676;SDS011;31390;51.186;6.830;2023-03-20T14:09:24;7.20;;;3.83;;
45676;SDS011;31390;51.186;6.830;2023-03-20T14:11:52;7.53;;;3.65;;
45676;SDS011;31390;51.186;6.830;2023-03-20T14:14:23;9.52;;;3.30;;
45676;SDS011;31390;51.186;6.830;2023-03-20T14:17:00;6.80;;;3.72;;
45676;SDS011;31390;51.186;6.830;2023-03-20T14:19:27;7.18;;;3.47;;
45676;SDS011;31390;51.186;6.830;2023-03-20T14:21:54;6.65;;;3.25;;
45676;SDS011;31390;51.186;6.830;2023-03-20T14:24:22;7.68;;;3.35;;
45676;SDS011;31390;51.186;6.830;2023-03-20T14:26:49;8.23;;;3.45;;
45676;SDS011;31390;51.186;6.830;2023-03-20T14:31:42;7.80;;;3.30;;
45676;SDS011;31390;51.186;6.830;2023-03-20T14:34:14;5.10;;;3.45;;
45676;SDS011;31390;51.186;6.830;2023-03-20T14:36:46;5.93;;;3.58;;
45676;SDS011;31390;51.186;6.830;2023-03-20T14:39:25;7.85;;;3.92;;
45676;SDS011;31390;51.186;6.830;2023-03-20T14:44:34;9.45;;;3.83;;
45676;SDS011;31390;51.186;6.830;2023-03-20T14:47:05;9.18;;;4.35;;
45676;SDS011;31390;51.186;6.830;2023-03-20T14:52:18;9.18;;;4.28;;
45676;SDS011;31390;51.186;6.830;2023-03-20T14:54:51;8.75;;;3.92;;
45676;SDS011;31390;51.186;6.830;2023-03-20T14:57:31;8.18;;;4.10;;
45676;SDS011;31390;51.186;6.830;2023-03-20T15:02:47;7.47;;;4.40;;
45676;SDS011;31390;51.186;6.830;2023-03-20T15:05:24;11.05;;;4.07;;
45676;SDS011;31390;51.186;6.830;2023-03-20T15:08:01;9.38;;;4.00;;
45676;SDS011;31390;51.186;6.830;2023-03-20T15:10:28;9.93;;;4.25;;
45676;SDS011;31390;51.186;6.830;2023-03-20T15:12:55;11.30;;;3.75;;
45676;SDS011;31390;51.186;6.830;2023-03-20T15:15:24;10.50;;;3.65;;
45676;SDS011;31390;51.186;6.830;2023-03-20T15:17:51;7.82;;;3.65;;
45676;SDS011;31390;51.186;6.830;2023-03-20T15:20:23;12.55;;;4.32;;
45676;SDS011;31390;51.186;6.830;2023-03-20T15:25:17;7.13;;;3.58;;
45676;SDS011;31390;51.186;6.830;2023-03-20T15:27:43;7.00;;;3.30;;
45676;SDS011;31390;51.186;6.830;2023-03-20T15:30:12;9.60;;;4.38;;
45676;SDS011;31390;51.186;6.830;2023-03-20T15:32:40;11.80;;;4.80;;
45676;SDS011;31390;51.186;6.830;2023-03-20T15:35:10;8.70;;;3.60;;
45676;SDS011;31390;51.186;6.830;2023-03-20T15:37:38;8.60;;;3.72;;
45676;SDS011;31390;51.186;6.830;2023-03-20T15:40:11;9.82;;;4.13;;
45676;SDS011;31390;51.186;6.830;2023-03-20T15:42:39;10.00;;;4.32;;
45676;SDS011;31390;51.186;6.830;2023-03-20T15:45:39;11.10;;;3.17;;
45676;SDS011;31390;51.186;6.830;2023-03-20T15:47:59;7.35;;;3.88;;
45676;SDS011;31390;51.186;6.830;2023-03-20T15:50:29;8.82;;;3.47;;
45676;SDS011;31390;51.186;6.830;2023-03-20T15:52:56;8.27;;;3.80;;
45676;SDS011;31390;51.186;6.830;2023-03-20T15:55:22;6.80;;;3.25;;
45676;SDS011;31390;51.186;6.830;2023-03-20T15:57:49;8.20;;;3.72;;
45676;SDS011;31390;51.186;6.830;2023-03-20T16:00:21;10.63;;;3.50;;
45676;SDS011;31390;51.186;6.830;2023-03-20T16:02:50;8.93;;;3.22;;
45676;SDS011;31390;51.186;6.830;2023-03-20T16:05:17;6.32;;;3.20;;
45676;SDS011;31390;51.186;6.830;2023-03-20T16:07:44;9.55;;;3.58;;
45676;SDS011;31390;51.186;6.830;2023-03-20T16:10:30;5.82;;;2.90;;
45676;SDS011;31390;51.186;6.830;2023-03-20T16:12:59;9.10;;;3.13;;
45676;SDS011;31390;51.186;6.830;2023-03-20T16:15:26;8.77;;;3.72;;
45676;SDS011;31390;51.186;6.830;2023-03-20T16:17:55;5.97;;;2.95;;
45676;SDS011;31390;51.186;6.830;2023-03-20T16:20:22;7.30;;;3.40;;
45676;SDS011;31390;51.186;6.830;2023-03-20T16:22:50;9.38;;;3.10;;
45676;SDS011;31390;51.186;6.830;2023-03-20T16:25:18;6.78;;;3.70;;
45676;SDS011;31390;51.186;6.830;2023-03-20T16:27:45;6.72;;;3.40;;
45676;SDS011;31390;51.186;6.830;2023-03-20T16:30:18;5.90;;;2.90;;
45676;SDS011;31390;51.186;6.830;2023-03-20T16:32:48;8.25;;;3.35;;
45676;SDS011;31390;51.186;6.830;2023-03-20T16:35:17;8.30;;;2.97;;
45676;SDS011;31390;51.186;6.830;2023-03-20T16:37:49;7.05;;;3.20;;
45676;SDS011;31390;51.186;6.830;2023-03-20T16:40:19;6.93;;;2.97;;
45676;SDS011;31390;51.186;6.830;2023-03-20T16:42:45;7.78;;;3.70;;
45676;SDS011;31390;51.186;6.830;2023-03-20T16:45:19;6.15;;;3.35;;
45676;SDS011;31390;51.186;6.830;2023-03-20T16:47:47;9.38;;;3.47;;